Terminal Aerodrome Forecast
Issued by NWS Oklahoma City, OK

Home | Current Version | Previous Version | Text Only | Print | Product List | Glossary On
Versions: 1 2 3 4 5 6 7 8 9 10 11 12
000
FTUS44 KOUN 242322
TAFOUN
TAF
KOUN 242322Z 2500/2524 14012KT P6SM VCTS SCT030 BKN050CB
      TEMPO 2500/2504 2SM TSRA OVC025CB
     FM250400 16007KT 6SM -TSRA OVC030CB
     FM250900 16004KT 4SM TSRA BR OVC012CB
     FM251500 VRB04KT 5SM -TSRA OVC025CB
     FM252100 01012G20KT P6SM OVC025
      TEMPO 2521/2524 P6SM -SHRA OVC025=

USA.gov is the U.S. government's official web portal to all federal, state and local government web resources and services.